CheckWX is a tool to help pilots better visualize weather data.  It is not intended as a substitute for an official pre-flight weather briefing.

12:42:16 UTC

KORS METAR
Orcas Island Airport
Eastsound, Washington, USA
Current

27 mins ago

KORS 021215Z AUTO 21007KT 10SM OVC036 13/09 A2989 RMK AO2
Observed
Jul-2 @ 12:15 UTC
Wind
  • 210° at 7 KTS
Visibility
10 SM
Flight Rules
VFR
Cloud Levels
  • Overcast at 3,600' AGL
Temperature
13°C / 55°F
Dewpoint
C / 48°F
Humidity
77%
Altimeter
29.89" Hg
Pressure
1012.22 hPa
Previous

47 mins ago

KORS 021155Z AUTO 18008KT 10SM OVC035 13/09 A2989 RMK AO2
Observed
Jul-2 @ 11:55 UTC
Wind
  • 180° at 8 KTS
Visibility
10 SM
Flight Rules
VFR
Cloud Levels
  • Overcast at 3,500' AGL
Temperature
13°C / 55°F
Dewpoint
C / 48°F
Humidity
77%
Altimeter
29.89" Hg
Pressure
1012.22 hPa
Previous

1 hour ago

KORS 021135Z AUTO 18007KT 10SM OVC035 13/09 A2989 RMK AO2
Observed
Jul-2 @ 11:35 UTC
Wind
  • 180° at 7 KTS
Visibility
10 SM
Flight Rules
VFR
Cloud Levels
  • Overcast at 3,500' AGL
Temperature
13°C / 55°F
Dewpoint
C / 48°F
Humidity
77%
Altimeter
29.89" Hg
Pressure
1012.22 hPa